Macuru Arrow — C6YH3 — position and weather

sailwx.info

Track history (hours):
 
Tides and Currents Weather Stations Pressure Air Temp Water Temp Dewpoint Dewpoint Depression Visibility Wind Speed Wind Dir Waves Ship Positions

Macuru Arrow

Last reported at 2014-Jul-31 15:33 UTC. Time now 2014-Jul-31 15:44 UTC.
Position S 34°08' E 017°56'.

Length 225 m; draft 13.7 m.

Type: Cargo ship. MMSI: 311032500.

Date/timePositionNaut miles runAvg speedWind from/ knotsBaromVisibWave heightAir tempDewpointWater temp
2014-Jul-31 15:33S 34°08' E 017°56'1312.4
2014-Jul-31 14:30S 34°19' E 018°05'1512.2
2014-Jul-31 13:15S 34°30' E 018°17'2011.9
2014-Jul-31 11:33S 34°41' E 018°38'1211.7
2014-Jul-31 10:32S 34°46' E 018°51'31311.2
2014-Jul-30 06:28S 34°25' E 025°10'2410.9
2014-Jul-30 04:16S 34°20' E 025°38'37512.2
2014-Jul-28 21:23S 30°14' E 031°14'910.6
2014-Jul-28 20:33S 30°07' E 031°19'1110.5
2014-Jul-28 19:33S 29°58' E 031°26'1010.4
2014-Jul-28 18:33S 29°50' E 031°33'1110.7
2014-Jul-28 17:33S 29°41' E 031°40'1111.0
2014-Jul-28 16:33S 29°32' E 031°48'1010.4
2014-Jul-28 15:33S 29°24' E 031°55'  
2014-Jul-25 22:21S 28°48' E 032°03'6 3.1
2014-Jul-25 20:21S 28°51' E 032°09'1 0.6
2014-Jul-25 18:14S 28°53' E 032°09'0 0.0
2014-Jul-25 17:26S 28°53' E 032°09'0 0.0
2014-Jul-25 16:26S 28°53' E 032°09'0 0.0
2014-Jul-25 15:32S 28°53' E 032°09'0 0.0
2014-Jul-25 14:32S 28°53' E 032°09'0 0.0
2014-Jul-25 13:26S 28°53' E 032°09'0 0.0
2014-Jul-25 12:32S 28°53' E 032°09'0 0.0
2014-Jul-25 11:32S 28°53' E 032°09'0 0.0
2014-Jul-25 10:26S 28°53' E 032°09'0 0.0
2014-Jul-25 09:20S 28°53' E 032°09'0 0.0
2014-Jul-25 07:32S 28°53' E 032°09'0 0.0
2014-Jul-25 06:26S 28°53' E 032°09'0 0.0
2014-Jul-25 05:32S 28°53' E 032°09'0 0.0
2014-Jul-25 03:20S 28°53' E 032°09'0 0.0
2014-Jul-25 02:32S 28°53' E 032°09'0 0.0
2014-Jul-25 01:08S 28°53' E 032°09'0 0.0
2014-Jul-25 00:08S 28°53' E 032°09'0 0.0
2014-Jul-24 23:32S 28°53' E 032°09'0 0.0
2014-Jul-24 22:32S 28°53' E 032°09'0 0.0
2014-Jul-24 21:14S 28°53' E 032°09'0 0.0
2014-Jul-24 20:32S 28°53' E 032°09'0 0.0
2014-Jul-24 19:08S 28°53' E 032°09'7 0.2
2014-Jul-23 03:15S 28°47' E 032°03'0 0.0
2014-Jul-22 21:06S 28°47' E 032°03'  
Track history (hours):
 
Tides and Currents Weather Stations Pressure Air Temp Water Temp Dewpoint Dewpoint Depression Visibility Wind Speed Wind Dir Waves Ship Positions

Macuru Arrow

Last reported at 2014-Jul-31 15:33 UTC. Time now 2014-Jul-31 15:44 UTC.
Position S 34°08' E 017°56'.

Length 225 m; draft 13.7 m.

Type: Cargo ship. MMSI: 311032500.

Date/timePositionNaut miles runAvg speedWind from/ knotsBaromVisibWave heightAir tempDewpointWater temp
2014-Jul-31 15:33S 34°08' E 017°56'1312.4
2014-Jul-31 14:30S 34°19' E 018°05'1512.2
2014-Jul-31 13:15S 34°30' E 018°17'2011.9
2014-Jul-31 11:33S 34°41' E 018°38'1211.7
2014-Jul-31 10:32S 34°46' E 018°51'31311.2
2014-Jul-30 06:28S 34°25' E 025°10'2410.9
2014-Jul-30 04:16S 34°20' E 025°38'37512.2
2014-Jul-28 21:23S 30°14' E 031°14'910.6
2014-Jul-28 20:33S 30°07' E 031°19'1110.5
2014-Jul-28 19:33S 29°58' E 031°26'1010.4
2014-Jul-28 18:33S 29°50' E 031°33'1110.7
2014-Jul-28 17:33S 29°41' E 031°40'1111.0
2014-Jul-28 16:33S 29°32' E 031°48'1010.4
2014-Jul-28 15:33S 29°24' E 031°55'  
2014-Jul-25 22:21S 28°48' E 032°03'6 3.1
2014-Jul-25 20:21S 28°51' E 032°09'1 0.6
2014-Jul-25 18:14S 28°53' E 032°09'0 0.0
2014-Jul-25 17:26S 28°53' E 032°09'0 0.0
2014-Jul-25 16:26S 28°53' E 032°09'0 0.0
2014-Jul-25 15:32S 28°53' E 032°09'0 0.0
2014-Jul-25 14:32S 28°53' E 032°09'0 0.0
2014-Jul-25 13:26S 28°53' E 032°09'0 0.0
2014-Jul-25 12:32S 28°53' E 032°09'0 0.0
2014-Jul-25 11:32S 28°53' E 032°09'0 0.0
2014-Jul-25 10:26S 28°53' E 032°09'0 0.0
2014-Jul-25 09:20S 28°53' E 032°09'0 0.0
2014-Jul-25 07:32S 28°53' E 032°09'0 0.0
2014-Jul-25 06:26S 28°53' E 032°09'0 0.0
2014-Jul-25 05:32S 28°53' E 032°09'0 0.0
2014-Jul-25 03:20S 28°53' E 032°09'0 0.0
2014-Jul-25 02:32S 28°53' E 032°09'0 0.0
2014-Jul-25 01:08S 28°53' E 032°09'0 0.0
2014-Jul-25 00:08S 28°53' E 032°09'0 0.0
2014-Jul-24 23:32S 28°53' E 032°09'0 0.0
2014-Jul-24 22:32S 28°53' E 032°09'0 0.0
2014-Jul-24 21:14S 28°53' E 032°09'0 0.0
2014-Jul-24 20:32S 28°53' E 032°09'0 0.0
2014-Jul-24 19:08S 28°53' E 032°09'7 0.2
2014-Jul-23 03:15S 28°47' E 032°03'0 0.0
2014-Jul-22 21:06S 28°47' E 032°03'  

Dump ship's entire track history